sensor_id;sensor_type;location;lat;lon;timestamp;pressure;altitude;pressure_sealevel;temperature
24740;BMP280;45234;48.148;17.128;2024-03-23T00:56:19;99447.09;;;12.37
24740;BMP280;45234;48.148;17.128;2024-03-23T00:58:45;99449.34;;;12.33
24740;BMP280;45234;48.148;17.128;2024-03-23T01:01:11;99447.34;;;12.28
24740;BMP280;45234;48.148;17.128;2024-03-23T01:03:37;99446.22;;;12.24
24740;BMP280;45234;48.148;17.128;2024-03-23T01:06:03;99443.50;;;12.19
24740;BMP280;45234;48.148;17.128;2024-03-23T01:08:30;99436.56;;;12.13
24740;BMP280;45234;48.148;17.128;2024-03-23T01:10:57;99438.59;;;12.11
24740;BMP280;45234;48.148;17.128;2024-03-23T01:13:23;99432.38;;;12.12
24740;BMP280;45234;48.148;17.128;2024-03-23T01:15:50;99429.78;;;12.12
24740;BMP280;45234;48.148;17.128;2024-03-23T01:18:17;99428.00;;;12.13
24740;BMP280;45234;48.148;17.128;2024-03-23T01:20:44;99425.59;;;12.11
24740;BMP280;45234;48.148;17.128;2024-03-23T01:23:11;99424.72;;;12.17
24740;BMP280;45234;48.148;17.128;2024-03-23T01:25:37;99419.41;;;12.12
24740;BMP280;45234;48.148;17.128;2024-03-23T01:28:03;99422.41;;;12.09
24740;BMP280;45234;48.148;17.128;2024-03-23T01:30:29;99422.84;;;12.06
24740;BMP280;45234;48.148;17.128;2024-03-23T01:32:56;99421.38;;;12.10
24740;BMP280;45234;48.148;17.128;2024-03-23T01:35:22;99418.78;;;12.10
24740;BMP280;45234;48.148;17.128;2024-03-23T01:37:48;99414.59;;;12.09
24740;BMP280;45234;48.148;17.128;2024-03-23T01:40:14;99412.00;;;12.09
24740;BMP280;45234;48.148;17.128;2024-03-23T01:42:41;99414.22;;;12.12
24740;BMP280;45234;48.148;17.128;2024-03-23T01:45:08;99410.41;;;12.08
24740;BMP280;45234;48.148;17.128;2024-03-23T01:47:35;99405.81;;;12.10
24740;BMP280;45234;48.148;17.128;2024-03-23T01:50:01;99407.81;;;12.08
24740;BMP280;45234;48.148;17.128;2024-03-23T01:52:29;99404.88;;;12.05
24740;BMP280;45234;48.148;17.128;2024-03-23T01:54:56;99396.88;;;12.06
24740;BMP280;45234;48.148;17.128;2024-03-23T01:57:22;99402.72;;;12.02
24740;BMP280;45234;48.148;17.128;2024-03-23T01:59:48;99402.34;;;11.98
24740;BMP280;45234;48.148;17.128;2024-03-23T02:02:22;99399.06;;;11.91
24740;BMP280;45234;48.148;17.128;2024-03-23T02:04:48;99396.50;;;11.84
24740;BMP280;45234;48.148;17.128;2024-03-23T02:07:14;99391.97;;;11.80
24740;BMP280;45234;48.148;17.128;2024-03-23T02:09:40;99391.22;;;11.73
24740;BMP280;45234;48.148;17.128;2024-03-23T02:12:06;99389.00;;;11.76
24740;BMP280;45234;48.148;17.128;2024-03-23T02:14:32;99384.03;;;11.75
24740;BMP280;45234;48.148;17.128;2024-03-23T02:16:58;99384.44;;;11.72
24740;BMP280;45234;48.148;17.128;2024-03-23T02:19:24;99383.09;;;11.69
24740;BMP280;45234;48.148;17.128;2024-03-23T02:21:50;99382.31;;;11.69
24740;BMP280;45234;48.148;17.128;2024-03-23T02:24:16;99377.91;;;11.69
24740;BMP280;45234;48.148;17.128;2024-03-23T02:26:42;99370.91;;;11.70
24740;BMP280;45234;48.148;17.128;2024-03-23T02:29:07;99357.31;;;11.68
24740;BMP280;45234;48.148;17.128;2024-03-23T02:31:35;99369.03;;;11.77
24740;BMP280;45234;48.148;17.128;2024-03-23T02:34:01;99362.78;;;11.78
24740;BMP280;45234;48.148;17.128;2024-03-23T02:36:27;99357.59;;;11.78
24740;BMP280;45234;48.148;17.128;2024-03-23T02:38:53;99341.06;;;11.79
24740;BMP280;45234;48.148;17.128;2024-03-23T02:41:20;99344.44;;;11.79
24740;BMP280;45234;48.148;17.128;2024-03-23T02:43:49;99342.44;;;11.81
24740;BMP280;45234;48.148;17.128;2024-03-23T02:46:15;99338.59;;;11.84
24740;BMP280;45234;48.148;17.128;2024-03-23T02:48:41;99320.06;;;11.80
24740;BMP280;45234;48.148;17.128;2024-03-23T02:51:07;99317.09;;;11.77
24740;BMP280;45234;48.148;17.128;2024-03-23T02:53:33;99314.25;;;11.78
24740;BMP280;45234;48.148;17.128;2024-03-23T02:55:59;99305.41;;;11.86
24740;BMP280;45234;48.148;17.128;2024-03-23T02:58:25;99300.50;;;11.78
24740;BMP280;45234;48.148;17.128;2024-03-23T03:00:51;99305.13;;;11.76
24740;BMP280;45234;48.148;17.128;2024-03-23T03:03:16;99308.75;;;11.75
24740;BMP280;45234;48.148;17.128;2024-03-23T03:05:42;99312.91;;;11.76
24740;BMP280;45234;48.148;17.128;2024-03-23T03:08:08;99313.00;;;11.69
24740;BMP280;45234;48.148;17.128;2024-03-23T03:10:34;99311.75;;;11.72
24740;BMP280;45234;48.148;17.128;2024-03-23T03:13:02;99308.84;;;11.68
24740;BMP280;45234;48.148;17.128;2024-03-23T03:15:28;99308.63;;;11.70
24740;BMP280;45234;48.148;17.128;2024-03-23T03:17:54;99307.09;;;11.62
24740;BMP280;45234;48.148;17.128;2024-03-23T03:20:20;99303.13;;;11.59
24740;BMP280;45234;48.148;17.128;2024-03-23T03:22:47;99295.19;;;11.54
24740;BMP280;45234;48.148;17.128;2024-03-23T03:25:13;99305.25;;;11.44
24740;BMP280;45234;48.148;17.128;2024-03-23T03:27:39;99296.09;;;11.42
24740;BMP280;45234;48.148;17.128;2024-03-23T03:30:05;99299.28;;;11.44
24740;BMP280;45234;48.148;17.128;2024-03-23T03:32:33;99304.69;;;11.42
24740;BMP280;45234;48.148;17.128;2024-03-23T03:34:59;99293.56;;;11.35
24740;BMP280;45234;48.148;17.128;2024-03-23T03:37:25;99294.16;;;11.37
24740;BMP280;45234;48.148;17.128;2024-03-23T03:39:51;99294.16;;;11.37
24740;BMP280;45234;48.148;17.128;2024-03-23T03:42:17;99298.63;;;11.30
24740;BMP280;45234;48.148;17.128;2024-03-23T03:44:43;99296.63;;;11.32
24740;BMP280;45234;48.148;17.128;2024-03-23T03:47:08;99292.16;;;11.39
24740;BMP280;45234;48.148;17.128;2024-03-23T03:49:34;99298.47;;;11.43
24740;BMP280;45234;48.148;17.128;2024-03-23T03:52:01;99296.88;;;11.42
24740;BMP280;45234;48.148;17.128;2024-03-23T03:54:27;99288.53;;;11.40
24740;BMP280;45234;48.148;17.128;2024-03-23T03:56:53;99287.38;;;11.36
24740;BMP280;45234;48.148;17.128;2024-03-23T03:59:19;99295.16;;;11.36
24740;BMP280;45234;48.148;17.128;2024-03-23T04:01:46;99290.63;;;11.32
24740;BMP280;45234;48.148;17.128;2024-03-23T04:04:12;99290.69;;;11.25
24740;BMP280;45234;48.148;17.128;2024-03-23T04:06:37;99289.09;;;11.24
24740;BMP280;45234;48.148;17.128;2024-03-23T04:09:04;99282.06;;;11.31
24740;BMP280;45234;48.148;17.128;2024-03-23T04:11:30;99279.72;;;11.23
24740;BMP280;45234;48.148;17.128;2024-03-23T04:13:56;99283.31;;;11.22
24740;BMP280;45234;48.148;17.128;2024-03-23T04:16:28;99291.75;;;11.17
24740;BMP280;45234;48.148;17.128;2024-03-23T04:18:54;99290.78;;;11.12
24740;BMP280;45234;48.148;17.128;2024-03-23T04:21:21;99284.69;;;11.06
24740;BMP280;45234;48.148;17.128;2024-03-23T04:23:47;99284.28;;;11.03
24740;BMP280;45234;48.148;17.128;2024-03-23T04:26:13;99278.69;;;11.06
24740;BMP280;45234;48.148;17.128;2024-03-23T04:28:39;99280.28;;;11.07
24740;BMP280;45234;48.148;17.128;2024-03-23T04:31:05;99281.69;;;11.03
24740;BMP280;45234;48.148;17.128;2024-03-23T04:33:31;99283.66;;;11.07
24740;BMP280;45234;48.148;17.128;2024-03-23T04:35:57;99284.00;;;11.11
24740;BMP280;45234;48.148;17.128;2024-03-23T04:38:23;99286.78;;;11.16
24740;BMP280;45234;48.148;17.128;2024-03-23T04:40:59;99283.59;;;11.14
24740;BMP280;45234;48.148;17.128;2024-03-23T04:43:26;99282.31;;;11.23
24740;BMP280;45234;48.148;17.128;2024-03-23T04:45:52;99281.94;;;11.19
24740;BMP280;45234;48.148;17.128;2024-03-23T04:48:20;99281.88;;;11.08
24740;BMP280;45234;48.148;17.128;2024-03-23T04:50:46;99281.88;;;11.08
24740;BMP280;45234;48.148;17.128;2024-03-23T04:53:12;99276.16;;;10.99
24740;BMP280;45234;48.148;17.128;2024-03-23T04:55:38;99277.16;;;10.98
24740;BMP280;45234;48.148;17.128;2024-03-23T04:58:04;99270.22;;;10.92
24740;BMP280;45234;48.148;17.128;2024-03-23T05:00:30;99266.66;;;10.86
24740;BMP280;45234;48.148;17.128;2024-03-23T05:02:56;99264.66;;;10.88
24740;BMP280;45234;48.148;17.128;2024-03-23T05:05:22;99264.06;;;10.86
24740;BMP280;45234;48.148;17.128;2024-03-23T05:07:48;99253.94;;;10.85
24740;BMP280;45234;48.148;17.128;2024-03-23T05:10:13;99252.16;;;10.85
24740;BMP280;45234;48.148;17.128;2024-03-23T05:12:39;99249.56;;;10.79
24740;BMP280;45234;48.148;17.128;2024-03-23T05:15:07;99249.38;;;10.80
24740;BMP280;45234;48.148;17.128;2024-03-23T05:17:33;99247.75;;;10.86
24740;BMP280;45234;48.148;17.128;2024-03-23T05:19:59;99245.19;;;10.79
24740;BMP280;45234;48.148;17.128;2024-03-23T05:22:25;99246.06;;;10.73
24740;BMP280;45234;48.148;17.128;2024-03-23T05:24:53;99244.88;;;10.69
24740;BMP280;45234;48.148;17.128;2024-03-23T05:27:19;99240.13;;;10.66
24740;BMP280;45234;48.148;17.128;2024-03-23T05:29:44;99235.78;;;10.60
24740;BMP280;45234;48.148;17.128;2024-03-23T05:32:10;99237.75;;;10.65
24740;BMP280;45234;48.148;17.128;2024-03-23T05:34:36;99226.91;;;10.74
24740;BMP280;45234;48.148;17.128;2024-03-23T05:37:02;99229.63;;;10.79
24740;BMP280;45234;48.148;17.128;2024-03-23T05:39:28;99221.97;;;10.91
24740;BMP280;45234;48.148;17.128;2024-03-23T05:41:54;99221.91;;;10.98
24740;BMP280;45234;48.148;17.128;2024-03-23T05:44:20;99221.25;;;11.02
24740;BMP280;45234;48.148;17.128;2024-03-23T05:46:46;99215.84;;;11.04
24740;BMP280;45234;48.148;17.128;2024-03-23T05:49:16;99233.41;;;11.02
24740;BMP280;45234;48.148;17.128;2024-03-23T05:51:43;99224.81;;;11.08
24740;BMP280;45234;48.148;17.128;2024-03-23T05:54:09;99227.06;;;11.22
24740;BMP280;45234;48.148;17.128;2024-03-23T05:56:35;99225.50;;;11.40
24740;BMP280;45234;48.148;17.128;2024-03-23T05:59:01;99223.06;;;11.56
24740;BMP280;45234;48.148;17.128;2024-03-23T06:01:29;99227.97;;;11.64
24740;BMP280;45234;48.148;17.128;2024-03-23T06:03:58;99228.59;;;11.78
24740;BMP280;45234;48.148;17.128;2024-03-23T06:06:24;99231.06;;;11.73
24740;BMP280;45234;48.148;17.128;2024-03-23T06:08:50;99231.94;;;11.67
24740;BMP280;45234;48.148;17.128;2024-03-23T06:11:16;99218.34;;;11.53
24740;BMP280;45234;48.148;17.128;2024-03-23T06:13:41;99208.69;;;11.42
24740;BMP280;45234;48.148;17.128;2024-03-23T06:16:07;99208.59;;;11.49
24740;BMP280;45234;48.148;17.128;2024-03-23T06:18:33;99213.59;;;11.50
24740;BMP280;45234;48.148;17.128;2024-03-23T06:20:59;99213.00;;;11.48
24740;BMP280;45234;48.148;17.128;2024-03-23T06:23:25;99207.38;;;11.51
24740;BMP280;45234;48.148;17.128;2024-03-23T06:25:51;99208.19;;;11.52
24740;BMP280;45234;48.148;17.128;2024-03-23T06:28:17;99209.38;;;11.68
24740;BMP280;45234;48.148;17.128;2024-03-23T06:30:43;99215.44;;;11.80
24740;BMP280;45234;48.148;17.128;2024-03-23T06:33:09;99208.50;;;11.92
24740;BMP280;45234;48.148;17.128;2024-03-23T06:35:35;99211.09;;;12.04
24740;BMP280;45234;48.148;17.128;2024-03-23T06:38:01;99203.09;;;12.05
24740;BMP280;45234;48.148;17.128;2024-03-23T06:40:27;99203.00;;;12.12
24740;BMP280;45234;48.148;17.128;2024-03-23T06:42:53;99203.38;;;12.39
24740;BMP280;45234;48.148;17.128;2024-03-23T06:45:19;99203.41;;;12.62
24740;BMP280;45234;48.148;17.128;2024-03-23T06:47:50;99203.97;;;12.52
24740;BMP280;45234;48.148;17.128;2024-03-23T06:50:17;99207.25;;;12.71
24740;BMP280;45234;48.148;17.128;2024-03-23T06:52:43;99200.59;;;12.87
24740;BMP280;45234;48.148;17.128;2024-03-23T06:55:09;99198.28;;;13.14
24740;BMP280;45234;48.148;17.128;2024-03-23T06:57:35;99201.31;;;13.34
24740;BMP280;45234;48.148;17.128;2024-03-23T07:00:01;99200.25;;;13.47
24740;BMP280;45234;48.148;17.128;2024-03-23T07:02:30;99196.09;;;13.62
24740;BMP280;45234;48.148;17.128;2024-03-23T07:04:56;99198.13;;;13.72
24740;BMP280;45234;48.148;17.128;2024-03-23T07:07:22;99198.50;;;13.81
24740;BMP280;45234;48.148;17.128;2024-03-23T07:09:48;99197.69;;;13.92
24740;BMP280;45234;48.148;17.128;2024-03-23T07:12:14;99196.72;;;13.98
24740;BMP280;45234;48.148;17.128;2024-03-23T07:14:40;99197.44;;;14.10
24740;BMP280;45234;48.148;17.128;2024-03-23T07:17:05;99197.38;;;14.22
24740;BMP280;45234;48.148;17.128;2024-03-23T07:19:31;99195.25;;;14.35
24740;BMP280;45234;48.148;17.128;2024-03-23T07:21:57;99190.97;;;14.46
24740;BMP280;45234;48.148;17.128;2024-03-23T07:24:23;99201.78;;;14.55
24740;BMP280;45234;48.148;17.128;2024-03-23T07:26:49;99193.97;;;14.55
24740;BMP280;45234;48.148;17.128;2024-03-23T07:29:16;99191.91;;;14.57
24740;BMP280;45234;48.148;17.128;2024-03-23T07:31:42;99193.13;;;14.16
24740;BMP280;45234;48.148;17.128;2024-03-23T07:34:08;99188.38;;;14.13
24740;BMP280;45234;48.148;17.128;2024-03-23T07:36:34;99192.19;;;14.05
24740;BMP280;45234;48.148;17.128;2024-03-23T07:39:00;99190.41;;;13.94
24740;BMP280;45234;48.148;17.128;2024-03-23T07:41:26;99186.06;;;13.83
24740;BMP280;45234;48.148;17.128;2024-03-23T07:43:54;99185.03;;;13.84
24740;BMP280;45234;48.148;17.128;2024-03-23T07:46:21;99190.72;;;13.97
24740;BMP280;45234;48.148;17.128;2024-03-23T07:48:47;99184.72;;;13.97
24740;BMP280;45234;48.148;17.128;2024-03-23T07:51:23;99175.69;;;13.88
24740;BMP280;45234;48.148;17.128;2024-03-23T07:53:49;99174.56;;;14.12
24740;BMP280;45234;48.148;17.128;2024-03-23T07:56:15;99183.78;;;14.20
24740;BMP280;45234;48.148;17.128;2024-03-23T07:58:42;99171.72;;;14.14
24740;BMP280;45234;48.148;17.128;2024-03-23T08:01:09;99169.66;;;14.16
24740;BMP280;45234;48.148;17.128;2024-03-23T08:03:40;99169.03;;;14.25
24740;BMP280;45234;48.148;17.128;2024-03-23T08:06:27;99166.09;;;14.38
24740;BMP280;45234;48.148;17.128;2024-03-23T08:08:55;99165.75;;;14.52
24740;BMP280;45234;48.148;17.128;2024-03-23T08:11:29;99159.44;;;14.48
24740;BMP280;45234;48.148;17.128;2024-03-23T08:13:56;99160.47;;;14.30
24740;BMP280;45234;48.148;17.128;2024-03-23T08:16:23;99157.91;;;14.13
24740;BMP280;45234;48.148;17.128;2024-03-23T08:18:52;99160.91;;;14.05
24740;BMP280;45234;48.148;17.128;2024-03-23T08:21:24;99154.50;;;13.96
24740;BMP280;45234;48.148;17.128;2024-03-23T08:23:52;99151.31;;;13.94
24740;BMP280;45234;48.148;17.128;2024-03-23T08:26:17;99135.16;;;14.08
24740;BMP280;45234;48.148;17.128;2024-03-23T08:28:44;99137.94;;;14.57
24740;BMP280;45234;48.148;17.128;2024-03-23T08:31:12;99138.34;;;14.88
24740;BMP280;45234;48.148;17.128;2024-03-23T08:33:38;99125.38;;;15.20
24740;BMP280;45234;48.148;17.128;2024-03-23T08:36:07;99131.72;;;15.56
24740;BMP280;45234;48.148;17.128;2024-03-23T08:38:34;99130.28;;;16.12
24740;BMP280;45234;48.148;17.128;2024-03-23T08:41:07;99126.84;;;16.48
24740;BMP280;45234;48.148;17.128;2024-03-23T08:43:37;99124.78;;;16.60
24740;BMP280;45234;48.148;17.128;2024-03-23T08:46:10;99117.91;;;16.44
24740;BMP280;45234;48.148;17.128;2024-03-23T08:48:43;99114.44;;;16.29
24740;BMP280;45234;48.148;17.128;2024-03-23T08:51:12;99118.97;;;16.01
24740;BMP280;45234;48.148;17.128;2024-03-23T08:53:39;99122.47;;;15.80
24740;BMP280;45234;48.148;17.128;2024-03-23T08:56:06;99117.16;;;15.65
24740;BMP280;45234;48.148;17.128;2024-03-23T08:58:33;99101.41;;;15.28
24740;BMP280;45234;48.148;17.128;2024-03-23T09:03:33;99086.25;;;14.98
24740;BMP280;45234;48.148;17.128;2024-03-23T09:06:02;99079.34;;;15.40
24740;BMP280;45234;48.148;17.128;2024-03-23T09:08:28;99076.28;;;15.85
24740;BMP280;45234;48.148;17.128;2024-03-23T09:10:54;99079.56;;;16.08
24740;BMP280;45234;48.148;17.128;2024-03-23T09:13:20;99073.38;;;16.24
24740;BMP280;45234;48.148;17.128;2024-03-23T09:15:51;99072.66;;;16.44
24740;BMP280;45234;48.148;17.128;2024-03-23T09:18:17;99071.75;;;16.80
24740;BMP280;45234;48.148;17.128;2024-03-23T09:20:43;99067.06;;;16.97
24740;BMP280;45234;48.148;17.128;2024-03-23T09:23:10;99058.97;;;17.09
24740;BMP280;45234;48.148;17.128;2024-03-23T09:25:39;99054.75;;;17.08
24740;BMP280;45234;48.148;17.128;2024-03-23T09:28:06;99050.59;;;17.12
24740;BMP280;45234;48.148;17.128;2024-03-23T09:30:35;99039.84;;;17.19
24740;BMP280;45234;48.148;17.128;2024-03-23T09:33:02;99040.63;;;17.29
24740;BMP280;45234;48.148;17.128;2024-03-23T09:35:28;99038.53;;;17.36
24740;BMP280;45234;48.148;17.128;2024-03-23T09:37:54;99040.66;;;17.45
24740;BMP280;45234;48.148;17.128;2024-03-23T09:40:20;99025.44;;;17.42
24740;BMP280;45234;48.148;17.128;2024-03-23T09:42:53;99031.22;;;17.23
24740;BMP280;45234;48.148;17.128;2024-03-23T09:45:24;99022.31;;;17.24
24740;BMP280;45234;48.148;17.128;2024-03-23T09:47:51;99020.72;;;17.28
24740;BMP280;45234;48.148;17.128;2024-03-23T09:50:17;99009.22;;;17.14
24740;BMP280;45234;48.148;17.128;2024-03-23T09:52:45;99012.09;;;16.87
24740;BMP280;45234;48.148;17.128;2024-03-23T09:55:11;99007.63;;;16.83
24740;BMP280;45234;48.148;17.128;2024-03-23T09:57:37;99011.81;;;16.84
24740;BMP280;45234;48.148;17.128;2024-03-23T10:00:03;98995.03;;;16.75
24740;BMP280;45234;48.148;17.128;2024-03-23T10:02:34;98990.88;;;16.69
24740;BMP280;45234;48.148;17.128;2024-03-23T10:05:01;98982.50;;;16.72
24740;BMP280;45234;48.148;17.128;2024-03-23T10:07:30;98979.63;;;16.73
24740;BMP280;45234;48.148;17.128;2024-03-23T10:09:56;98966.81;;;16.77
24740;BMP280;45234;48.148;17.128;2024-03-23T10:12:23;98965.22;;;16.86
24740;BMP280;45234;48.148;17.128;2024-03-23T10:14:50;98957.94;;;16.88
24740;BMP280;45234;48.148;17.128;2024-03-23T10:17:18;98952.13;;;16.76
24740;BMP280;45234;48.148;17.128;2024-03-23T10:19:45;98955.06;;;16.79
24740;BMP280;45234;48.148;17.128;2024-03-23T10:22:14;98958.16;;;16.86
24740;BMP280;45234;48.148;17.128;2024-03-23T10:24:43;98955.81;;;16.95
24740;BMP280;45234;48.148;17.128;2024-03-23T10:27:09;98945.84;;;16.97
24740;BMP280;45234;48.148;17.128;2024-03-23T10:29:35;98939.59;;;16.93
24740;BMP280;45234;48.148;17.128;2024-03-23T10:32:13;98929.13;;;17.03
24740;BMP280;45234;48.148;17.128;2024-03-23T10:34:40;98932.47;;;17.39
24740;BMP280;45234;48.148;17.128;2024-03-23T10:37:07;98931.31;;;17.60
24740;BMP280;45234;48.148;17.128;2024-03-23T10:39:40;98927.84;;;17.80
24740;BMP280;45234;48.148;17.128;2024-03-23T10:42:06;98920.63;;;17.57
24740;BMP280;45234;48.148;17.128;2024-03-23T10:44:42;98908.31;;;18.11
24740;BMP280;45234;48.148;17.128;2024-03-23T10:47:08;98901.91;;;18.23
24740;BMP280;45234;48.148;17.128;2024-03-23T10:49:35;98883.72;;;18.41
24740;BMP280;45234;48.148;17.128;2024-03-23T10:52:03;98875.38;;;18.63
24740;BMP280;45234;48.148;17.128;2024-03-23T10:54:31;98863.22;;;18.72
24740;BMP280;45234;48.148;17.128;2024-03-23T10:57:08;98860.81;;;18.76
24740;BMP280;45234;48.148;17.128;2024-03-23T10:59:36;98860.88;;;19.00
24740;BMP280;45234;48.148;17.128;2024-03-23T11:02:04;98862.19;;;19.21
24740;BMP280;45234;48.148;17.128;2024-03-23T11:04:37;98855.34;;;19.20
24740;BMP280;45234;48.148;17.128;2024-03-23T11:09:50;98855.22;;;19.30
24740;BMP280;45234;48.148;17.128;2024-03-23T11:14:51;98852.56;;;19.35
24740;BMP280;45234;48.148;17.128;2024-03-23T11:17:21;98855.88;;;19.22
24740;BMP280;45234;48.148;17.128;2024-03-23T11:20:00;98838.84;;;18.96
24740;BMP280;45234;48.148;17.128;2024-03-23T11:25:19;98837.94;;;18.81
24740;BMP280;45234;48.148;17.128;2024-03-23T11:27:54;98836.28;;;18.91
24740;BMP280;45234;48.148;17.128;2024-03-23T11:30:24;98832.13;;;18.84
24740;BMP280;45234;48.148;17.128;2024-03-23T11:32:54;98824.56;;;18.83
24740;BMP280;45234;48.148;17.128;2024-03-23T11:35:31;98825.19;;;18.70
24740;BMP280;45234;48.148;17.128;2024-03-23T11:38:10;98820.28;;;18.63
24740;BMP280;45234;48.148;17.128;2024-03-23T11:40:56;98824.94;;;18.66
24740;BMP280;45234;48.148;17.128;2024-03-23T11:43:21;98814.69;;;18.70
24740;BMP280;45234;48.148;17.128;2024-03-23T11:45:52;98811.91;;;18.61
24740;BMP280;45234;48.148;17.128;2024-03-23T11:48:23;98818.53;;;18.54
24740;BMP280;45234;48.148;17.128;2024-03-23T11:50:50;98818.59;;;18.48
24740;BMP280;45234;48.148;17.128;2024-03-23T11:53:20;98822.47;;;18.51
24740;BMP280;45234;48.148;17.128;2024-03-23T11:55:54;98798.13;;;18.45
24740;BMP280;45234;48.148;17.128;2024-03-23T11:58:22;98807.69;;;18.60
24740;BMP280;45234;48.148;17.128;2024-03-23T12:01:01;98816.69;;;18.54
24740;BMP280;45234;48.148;17.128;2024-03-23T12:03:29;98802.00;;;18.53
24740;BMP280;45234;48.148;17.128;2024-03-23T12:05:57;98805.56;;;18.38
24740;BMP280;45234;48.148;17.128;2024-03-23T12:08:31;98806.72;;;18.27
24740;BMP280;45234;48.148;17.128;2024-03-23T12:11:12;98796.56;;;18.16
24740;BMP280;45234;48.148;17.128;2024-03-23T12:13:39;98792.94;;;18.11
24740;BMP280;45234;48.148;17.128;2024-03-23T12:16:17;98792.94;;;18.11
24740;BMP280;45234;48.148;17.128;2024-03-23T12:18:45;98780.78;;;18.21
24740;BMP280;45234;48.148;17.128;2024-03-23T12:21:12;98779.16;;;18.25
24740;BMP280;45234;48.148;17.128;2024-03-23T12:23:41;98789.63;;;18.30
24740;BMP280;45234;48.148;17.128;2024-03-23T12:26:07;98779.13;;;18.30
24740;BMP280;45234;48.148;17.128;2024-03-23T12:28:34;98781.25;;;18.28
24740;BMP280;45234;48.148;17.128;2024-03-23T12:31:01;98764.00;;;18.22
24740;BMP280;45234;48.148;17.128;2024-03-23T12:33:27;98761.38;;;18.22
24740;BMP280;45234;48.148;17.128;2024-03-23T12:35:53;98762.16;;;18.22
24740;BMP280;45234;48.148;17.128;2024-03-23T12:38:20;98755.34;;;18.21
24740;BMP280;45234;48.148;17.128;2024-03-23T12:40:48;98744.56;;;18.23
24740;BMP280;45234;48.148;17.128;2024-03-23T12:43:15;98744.53;;;18.28
24740;BMP280;45234;48.148;17.128;2024-03-23T12:45:41;98748.66;;;18.34
24740;BMP280;45234;48.148;17.128;2024-03-23T12:48:07;98746.03;;;18.34
24740;BMP280;45234;48.148;17.128;2024-03-23T12:50:33;98749.72;;;18.33
24740;BMP280;45234;48.148;17.128;2024-03-23T12:52:59;98741.91;;;18.28
24740;BMP280;45234;48.148;17.128;2024-03-23T12:55:26;98746.88;;;18.29
24740;BMP280;45234;48.148;17.128;2024-03-23T12:57:52;98736.59;;;18.33
24740;BMP280;45234;48.148;17.128;2024-03-23T13:00:17;98743.09;;;18.40
24740;BMP280;45234;48.148;17.128;2024-03-23T13:02:44;98748.06;;;18.42
24740;BMP280;45234;48.148;17.128;2024-03-23T13:05:10;98743.03;;;18.45
24740;BMP280;45234;48.148;17.128;2024-03-23T13:07:36;98740.09;;;18.52
24740;BMP280;45234;48.148;17.128;2024-03-23T13:10:05;98737.16;;;18.59
24740;BMP280;45234;48.148;17.128;2024-03-23T13:12:31;98725.22;;;18.66
24740;BMP280;45234;48.148;17.128;2024-03-23T13:15:01;98723.56;;;18.75
24740;BMP280;45234;48.148;17.128;2024-03-23T13:17:32;98723.03;;;18.78
24740;BMP280;45234;48.148;17.128;2024-03-23T13:19:58;98723.44;;;18.85
24740;BMP280;45234;48.148;17.128;2024-03-23T13:22:24;98719.41;;;18.93
24740;BMP280;45234;48.148;17.128;2024-03-23T13:24:50;98717.00;;;18.97
24740;BMP280;45234;48.148;17.128;2024-03-23T13:27:16;98718.50;;;19.03
24740;BMP280;45234;48.148;17.128;2024-03-23T13:29:42;98708.69;;;19.08
24740;BMP280;45234;48.148;17.128;2024-03-23T13:32:08;98722.25;;;19.15
24740;BMP280;45234;48.148;17.128;2024-03-23T13:34:34;98724.59;;;19.17
24740;BMP280;45234;48.148;17.128;2024-03-23T13:37:01;98729.03;;;19.21
24740;BMP280;45234;48.148;17.128;2024-03-23T13:39:27;98741.00;;;19.27
24740;BMP280;45234;48.148;17.128;2024-03-23T13:41:54;98733.84;;;19.33
24740;BMP280;45234;48.148;17.128;2024-03-23T13:44:22;98743.34;;;19.48
24740;BMP280;45234;48.148;17.128;2024-03-23T13:46:48;98744.31;;;19.71
24740;BMP280;45234;48.148;17.128;2024-03-23T13:49:25;98748.03;;;19.83
24740;BMP280;45234;48.148;17.128;2024-03-23T13:51:56;98762.75;;;20.17
24740;BMP280;45234;48.148;17.128;2024-03-23T13:54:24;98772.63;;;20.38
24740;BMP280;45234;48.148;17.128;2024-03-23T13:56:55;98795.81;;;20.50
24740;BMP280;45234;48.148;17.128;2024-03-23T13:59:22;98807.81;;;20.56
24740;BMP280;45234;48.148;17.128;2024-03-23T14:01:51;98810.88;;;20.50
24740;BMP280;45234;48.148;17.128;2024-03-23T14:04:18;98857.22;;;20.45
24740;BMP280;45234;48.148;17.128;2024-03-23T14:06:48;98889.69;;;19.90
24740;BMP280;45234;48.148;17.128;2024-03-23T14:09:15;98900.16;;;19.28
24740;BMP280;45234;48.148;17.128;2024-03-23T14:11:47;98922.59;;;18.68
24740;BMP280;45234;48.148;17.128;2024-03-23T14:14:14;98936.53;;;18.25
24740;BMP280;45234;48.148;17.128;2024-03-23T14:16:43;98935.09;;;18.03
24740;BMP280;45234;48.148;17.128;2024-03-23T14:19:09;98950.44;;;17.61
24740;BMP280;45234;48.148;17.128;2024-03-23T14:21:35;98942.66;;;17.46
24740;BMP280;45234;48.148;17.128;2024-03-23T14:24:01;98949.03;;;17.19
24740;BMP280;45234;48.148;17.128;2024-03-23T14:26:28;98910.81;;;16.78
24740;BMP280;45234;48.148;17.128;2024-03-23T14:28:54;98925.44;;;16.53
24740;BMP280;45234;48.148;17.128;2024-03-23T14:31:20;98919.63;;;16.21
24740;BMP280;45234;48.148;17.128;2024-03-23T14:33:46;98902.84;;;16.02
24740;BMP280;45234;48.148;17.128;2024-03-23T14:36:14;98898.91;;;15.89
24740;BMP280;45234;48.148;17.128;2024-03-23T14:38:41;98901.19;;;15.75
24740;BMP280;45234;48.148;17.128;2024-03-23T14:41:07;98900.06;;;15.56
24740;BMP280;45234;48.148;17.128;2024-03-23T14:43:34;98903.56;;;15.35
24740;BMP280;45234;48.148;17.128;2024-03-23T14:46:07;98901.44;;;15.27
24740;BMP280;45234;48.148;17.128;2024-03-23T14:48:34;98916.06;;;15.23
24740;BMP280;45234;48.148;17.128;2024-03-23T14:51:01;98909.72;;;15.13
24740;BMP280;45234;48.148;17.128;2024-03-23T14:53:27;98924.84;;;15.11
24740;BMP280;45234;48.148;17.128;2024-03-23T14:55:59;98915.56;;;14.94
24740;BMP280;45234;48.148;17.128;2024-03-23T14:58:26;98931.00;;;15.00
24740;BMP280;45234;48.148;17.128;2024-03-23T15:00:52;98938.88;;;15.05
24740;BMP280;45234;48.148;17.128;2024-03-23T15:03:18;98943.56;;;15.03